createdAt,value
2023-04-04T00:07:35.774Z,4.70
2023-04-04T00:13:00.350Z,5.03
2023-04-04T00:18:00.828Z,5.37
2023-04-04T00:23:13.318Z,6.50
2023-04-04T00:28:16.064Z,6.03
2023-04-04T00:33:20.421Z,5.00
2023-04-04T00:38:47.803Z,7.73
2023-04-04T00:44:02.380Z,5.03
2023-04-04T00:49:09.865Z,4.80
2023-04-04T00:54:19.456Z,5.47
2023-04-04T00:59:31.158Z,7.47
2023-04-04T01:04:51.867Z,5.00
2023-04-04T01:10:17.343Z,5.77
2023-04-04T01:15:21.251Z,4.27
2023-04-04T01:20:28.264Z,5.10
2023-04-04T01:25:34.878Z,6.00
2023-04-04T01:30:38.567Z,4.10
2023-04-04T01:36:07.086Z,8.73
2023-04-04T01:41:10.932Z,5.40
2023-04-04T01:51:42.385Z,5.90
2023-04-04T01:56:44.384Z,7.47
2023-04-04T02:02:04.702Z,4.33
2023-04-04T02:07:09.455Z,4.03
2023-04-04T02:12:17.826Z,5.33
2023-04-04T02:17:43.230Z,4.70
2023-04-04T02:22:55.356Z,4.03
2023-04-04T02:28:07.109Z,6.23
2023-04-04T02:33:27.345Z,6.30
2023-04-04T02:38:31.095Z,4.20
2023-04-04T02:43:47.873Z,6.63
2023-04-04T02:48:53.073Z,4.97
2023-04-04T02:54:03.276Z,6.57
2023-04-04T02:59:07.833Z,7.17
2023-04-04T03:10:30.476Z,4.93
2023-04-04T03:15:32.443Z,8.23
2023-04-04T03:20:34.482Z,9.50
2023-04-04T03:25:37.343Z,8.53
2023-04-04T03:30:44.115Z,8.13
2023-04-04T03:35:48.397Z,5.07
2023-04-04T03:46:41.300Z,7.43
2023-04-04T03:51:50.894Z,8.00
2023-04-04T03:57:00.368Z,11.33
2023-04-04T04:02:05.494Z,8.97
2023-04-04T04:07:15.230Z,10.10
2023-04-04T04:12:23.800Z,7.00
2023-04-04T04:17:28.806Z,5.57
2023-04-04T04:22:33.813Z,7.17
2023-04-04T04:27:37.166Z,7.47
2023-04-04T04:32:39.165Z,6.53
2023-04-04T04:37:41.087Z,6.83
2023-04-04T04:42:48.629Z,6.20
2023-04-04T04:47:53.093Z,8.10
2023-04-04T04:52:57.450Z,5.57
2023-04-04T04:57:59.386Z,5.70
2023-04-04T05:03:09.919Z,7.03
2023-04-04T05:08:15.943Z,8.10
2023-04-04T05:13:29.024Z,7.13
2023-04-04T05:24:09.216Z,8.83
2023-04-04T05:29:37.401Z,9.57
2023-04-04T05:34:39.187Z,13.30
2023-04-04T05:39:43.935Z,18.17
2023-04-04T05:44:45.815Z,15.67
2023-04-04T05:55:19.442Z,19.13
2023-04-04T06:00:24.206Z,11.80
2023-04-04T06:05:35.455Z,14.87
2023-04-04T06:16:50.055Z,15.43
2023-04-04T06:21:52.993Z,10.73
2023-04-04T06:32:30.375Z,7.70
2023-04-04T06:37:55.678Z,7.47
2023-04-04T06:43:07.061Z,7.57
2023-04-04T06:53:53.032Z,8.87
2023-04-04T06:59:20.443Z,10.07
2023-04-04T07:04:26.027Z,18.03
2023-04-04T07:09:29.608Z,6.67
2023-04-04T07:14:33.827Z,7.87
2023-04-04T07:19:40.829Z,8.17
2023-04-04T07:25:08.795Z,5.83
2023-04-04T07:42:26.709Z,4.77
2023-04-04T07:47:10.601Z,3.63
2023-04-04T07:52:12.614Z,5.67
2023-04-04T07:57:17.294Z,3.37
2023-04-04T08:02:19.037Z,2.33
2023-04-04T08:13:39.616Z,8.90
2023-04-04T08:24:08.518Z,4.00
2023-04-04T08:29:10.373Z,3.83
2023-04-04T08:34:17.651Z,1.63
2023-04-04T08:39:41.912Z,4.20
2023-04-04T08:50:47.087Z,3.03
2023-04-04T08:55:51.689Z,4.57
2023-04-04T09:00:58.146Z,3.53
2023-04-04T09:11:46.842Z,4.80
2023-04-04T09:16:48.746Z,2.93
2023-04-04T09:21:51.148Z,3.50
2023-04-04T09:27:20.733Z,5.10
2023-04-04T09:32:25.036Z,2.40
2023-04-04T09:37:35.296Z,3.37
2023-04-04T09:42:39.359Z,5.83
2023-04-04T09:48:37.606Z,5.67
2023-04-04T09:54:28.251Z,3.60
2023-04-04T09:59:45.303Z,5.90
2023-04-04T10:15:52.700Z,3.47
2023-04-04T10:21:12.248Z,3.37
2023-04-04T10:26:27.488Z,3.53
2023-04-04T10:31:34.353Z,3.67
2023-04-04T10:38:08.209Z,4.10
2023-04-04T10:48:21.259Z,5.23
2023-04-04T10:53:25.516Z,3.27
2023-04-04T10:58:30.541Z,1.83
2023-04-04T11:03:37.937Z,3.93
2023-04-04T11:08:42.818Z,4.00
2023-04-04T11:13:59.714Z,4.47
2023-04-04T11:19:09.193Z,5.17
2023-04-04T11:24:19.095Z,2.77
2023-04-04T11:29:35.905Z,6.67
2023-04-04T11:34:40.854Z,3.63
2023-04-04T11:40:06.917Z,2.30
2023-04-04T11:45:42.667Z,2.80
2023-04-04T11:50:51.296Z,3.93
2023-04-04T11:55:53.620Z,3.30
2023-04-04T12:00:55.817Z,2.93
2023-04-04T12:05:57.829Z,2.47
2023-04-04T12:11:05.041Z,2.80
2023-04-04T12:16:33.420Z,4.97
2023-04-04T12:21:38.581Z,2.60
2023-04-04T12:26:58.966Z,3.23
2023-04-04T12:32:00.836Z,4.60
2023-04-04T12:37:04.074Z,5.50
2023-04-04T12:42:06.276Z,4.30
2023-04-04T12:47:18.865Z,3.23
2023-04-04T12:52:38.435Z,3.10
2023-04-04T12:57:45.084Z,7.73
2023-04-04T13:02:49.924Z,5.63
2023-04-04T13:07:56.206Z,5.47
2023-04-04T13:13:04.477Z,2.93
2023-04-04T13:18:21.833Z,3.03
2023-04-04T13:23:23.876Z,5.90
2023-04-04T13:28:33.432Z,4.50
2023-04-04T13:33:39.364Z,8.63
2023-04-04T13:38:43.303Z,3.33
2023-04-04T13:43:49.676Z,5.87
2023-04-04T13:49:05.635Z,3.57
2023-04-04T13:54:11.760Z,2.97
2023-04-04T13:59:16.769Z,4.20
2023-04-04T14:09:49.279Z,3.80
2023-04-04T14:14:51.204Z,3.00
2023-04-04T14:19:53.081Z,4.80
2023-04-04T14:25:03.339Z,7.50
2023-04-04T14:30:05.873Z,4.70
2023-04-04T14:35:07.952Z,4.13
2023-04-04T14:40:10.087Z,7.83
2023-04-04T14:45:13.473Z,3.90
2023-04-04T14:50:15.501Z,4.20
2023-04-04T14:55:20.812Z,3.53
2023-04-04T15:00:25.566Z,6.87
2023-04-04T15:05:27.511Z,4.90
2023-04-04T15:10:31.826Z,5.63
2023-04-04T15:15:36.498Z,4.93
2023-04-04T15:21:03.328Z,3.80
2023-04-04T15:26:08.506Z,3.03
2023-04-04T15:31:14.161Z,5.23
2023-04-04T15:36:19.348Z,3.67
2023-04-04T15:41:43.705Z,4.17
2023-04-04T15:53:14.991Z,3.47
2023-04-04T15:58:41.768Z,3.23
2023-04-04T16:04:03.938Z,6.40
2023-04-04T16:09:08.073Z,4.53
2023-04-04T16:14:17.521Z,4.27
2023-04-04T16:19:20.109Z,4.33
2023-04-04T16:24:22.051Z,4.30
2023-04-04T16:29:23.914Z,4.13
2023-04-04T16:34:28.822Z,5.17
2023-04-04T17:42:26.482Z,7.73
2023-04-04T17:48:39.640Z,8.10
2023-04-04T18:00:08.277Z,5.13
2023-04-04T18:06:02.174Z,5.53
2023-04-04T19:02:32.546Z,4.67
2023-04-04T22:07:33.708Z,4.90
2023-04-04T22:12:29.117Z,4.67
2023-04-04T22:18:09.592Z,4.23
2023-04-04T22:23:35.691Z,6.27
2023-04-04T22:28:40.576Z,5.77
2023-04-04T22:34:15.009Z,7.97
2023-04-04T22:39:32.753Z,6.53
2023-04-04T22:44:39.971Z,6.50
2023-04-04T22:50:13.618Z,4.27
2023-04-04T22:55:39.790Z,5.20
2023-04-04T23:01:12.963Z,5.23
2023-04-04T23:11:35.384Z,8.27
2023-04-04T23:16:47.489Z,6.93
2023-04-04T23:22:09.907Z,5.10
2023-04-04T23:27:40.271Z,4.93
2023-04-04T23:32:48.366Z,5.23
2023-04-04T23:43:36.593Z,6.47
2023-04-04T23:48:38.527Z,5.60
2023-04-04T23:53:47.277Z,8.23
2023-04-04T23:58:51.754Z,5.20
